sensor_id;sensor_type;location;lat;lon;timestamp;temperature;humidity
15044;DHT22;7619;48.562;8.910;2022-07-17T00:01:47;15.00;29.30
15044;DHT22;7619;48.562;8.910;2022-07-17T00:04:16;14.80;29.70
15044;DHT22;7619;48.562;8.910;2022-07-17T00:06:46;14.70;32.90
15044;DHT22;7619;48.562;8.910;2022-07-17T00:09:15;14.70;25.70
15044;DHT22;7619;48.562;8.910;2022-07-17T00:11:43;14.70;31.90
15044;DHT22;7619;48.562;8.910;2022-07-17T00:14:12;14.70;49.20
15044;DHT22;7619;48.562;8.910;2022-07-17T00:21:37;14.70;95.30
15044;DHT22;7619;48.562;8.910;2022-07-17T00:24:07;14.80;96.40
15044;DHT22;7619;48.562;8.910;2022-07-17T00:26:36;14.80;99.90
15044;DHT22;7619;48.562;8.910;2022-07-17T00:29:05;14.90;99.90
15044;DHT22;7619;48.562;8.910;2022-07-17T00:31:34;14.90;99.90
15044;DHT22;7619;48.562;8.910;2022-07-17T00:34:03;14.70;99.90
15044;DHT22;7619;48.562;8.910;2022-07-17T00:36:32;14.40;99.90
15044;DHT22;7619;48.562;8.910;2022-07-17T00:39:01;14.00;99.90
15044;DHT22;7619;48.562;8.910;2022-07-17T00:41:31;13.90;99.90
15044;DHT22;7619;48.562;8.910;2022-07-17T00:44:04;13.70;99.90
15044;DHT22;7619;48.562;8.910;2022-07-17T00:46:34;13.80;99.90
15044;DHT22;7619;48.562;8.910;2022-07-17T00:49:03;13.90;99.90
15044;DHT22;7619;48.562;8.910;2022-07-17T00:51:33;14.00;99.90
15044;DHT22;7619;48.562;8.910;2022-07-17T00:54:03;14.00;99.90
15044;DHT22;7619;48.562;8.910;2022-07-17T00:56:32;14.00;99.90
15044;DHT22;7619;48.562;8.910;2022-07-17T01:01:31;13.80;99.90
15044;DHT22;7619;48.562;8.910;2022-07-17T01:06:28;13.70;99.90
15044;DHT22;7619;48.562;8.910;2022-07-17T01:08:57;13.70;99.90
15044;DHT22;7619;48.562;8.910;2022-07-17T01:13:54;13.70;99.90
15044;DHT22;7619;48.562;8.910;2022-07-17T01:16:22;13.80;99.90
15044;DHT22;7619;48.562;8.910;2022-07-17T01:18:52;13.80;99.90
15044;DHT22;7619;48.562;8.910;2022-07-17T01:21:21;13.90;99.90
15044;DHT22;7619;48.562;8.910;2022-07-17T01:23:50;14.00;99.90
15044;DHT22;7619;48.562;8.910;2022-07-17T01:26:19;14.10;99.90
15044;DHT22;7619;48.562;8.910;2022-07-17T01:28:48;14.10;99.90
15044;DHT22;7619;48.562;8.910;2022-07-17T01:31:17;14.00;99.90
15044;DHT22;7619;48.562;8.910;2022-07-17T01:33:46;13.90;99.90
15044;DHT22;7619;48.562;8.910;2022-07-17T01:36:15;13.70;99.90
15044;DHT22;7619;48.562;8.910;2022-07-17T01:38:44;13.50;99.90
15044;DHT22;7619;48.562;8.910;2022-07-17T01:41:13;13.40;1.00
15044;DHT22;7619;48.562;8.910;2022-07-17T01:43:42;13.40;1.00
15044;DHT22;7619;48.562;8.910;2022-07-17T01:46:10;13.30;1.00
15044;DHT22;7619;48.562;8.910;2022-07-17T01:48:39;13.20;1.00
15044;DHT22;7619;48.562;8.910;2022-07-17T01:51:08;13.10;1.00
15044;DHT22;7619;48.562;8.910;2022-07-17T01:53:37;13.10;1.00
15044;DHT22;7619;48.562;8.910;2022-07-17T01:56:07;13.00;1.00
15044;DHT22;7619;48.562;8.910;2022-07-17T01:58:36;13.00;1.00
15044;DHT22;7619;48.562;8.910;2022-07-17T02:01:05;13.00;1.00
15044;DHT22;7619;48.562;8.910;2022-07-17T02:06:01;13.30;99.90
15044;DHT22;7619;48.562;8.910;2022-07-17T02:08:30;13.30;99.90
15044;DHT22;7619;48.562;8.910;2022-07-17T02:10:59;13.40;99.90
15044;DHT22;7619;48.562;8.910;2022-07-17T02:13:28;13.40;99.90
15044;DHT22;7619;48.562;8.910;2022-07-17T02:15:57;13.30;99.90
15044;DHT22;7619;48.562;8.910;2022-07-17T02:18:26;13.40;99.90
15044;DHT22;7619;48.562;8.910;2022-07-17T02:20:55;13.40;99.90
15044;DHT22;7619;48.562;8.910;2022-07-17T02:23:24;13.40;99.90
15044;DHT22;7619;48.562;8.910;2022-07-17T02:25:53;13.30;99.90
15044;DHT22;7619;48.562;8.910;2022-07-17T02:28:23;13.30;99.90
15044;DHT22;7619;48.562;8.910;2022-07-17T02:30:51;13.40;99.90
15044;DHT22;7619;48.562;8.910;2022-07-17T02:33:20;13.40;99.90
15044;DHT22;7619;48.562;8.910;2022-07-17T02:38:17;13.10;99.90
15044;DHT22;7619;48.562;8.910;2022-07-17T02:40:46;13.00;1.00
15044;DHT22;7619;48.562;8.910;2022-07-17T02:43:15;13.00;1.00
15044;DHT22;7619;48.562;8.910;2022-07-17T02:45:44;13.00;1.00
15044;DHT22;7619;48.562;8.910;2022-07-17T02:48:13;12.90;1.00
15044;DHT22;7619;48.562;8.910;2022-07-17T02:53:10;12.90;1.00
15044;DHT22;7619;48.562;8.910;2022-07-17T02:55:39;12.80;1.00
15044;DHT22;7619;48.562;8.910;2022-07-17T02:58:08;12.80;1.00
15044;DHT22;7619;48.562;8.910;2022-07-17T03:03:05;12.60;1.00
15044;DHT22;7619;48.562;8.910;2022-07-17T03:05:34;12.60;52.00
15044;DHT22;7619;48.562;8.910;2022-07-17T03:08:03;12.50;99.90
15044;DHT22;7619;48.562;8.910;2022-07-17T03:10:33;12.40;99.90
15044;DHT22;7619;48.562;8.910;2022-07-17T03:13:01;12.30;55.50
15044;DHT22;7619;48.562;8.910;2022-07-17T03:15:30;12.20;99.90
15044;DHT22;7619;48.562;8.910;2022-07-17T03:18:00;12.10;99.90
15044;DHT22;7619;48.562;8.910;2022-07-17T03:22:57;11.90;99.90
15044;DHT22;7619;48.562;8.910;2022-07-17T03:25:26;11.80;1.00
15044;DHT22;7619;48.562;8.910;2022-07-17T03:27:55;11.70;1.00
15044;DHT22;7619;48.562;8.910;2022-07-17T03:30:24;11.70;97.60
15044;DHT22;7619;48.562;8.910;2022-07-17T03:32:53;11.70;26.00
15044;DHT22;7619;48.562;8.910;2022-07-17T03:37:50;11.70;99.90
15044;DHT22;7619;48.562;8.910;2022-07-17T03:40:19;11.70;99.90
15044;DHT22;7619;48.562;8.910;2022-07-17T03:42:48;11.70;99.90
15044;DHT22;7619;48.562;8.910;2022-07-17T03:45:17;11.80;57.00
15044;DHT22;7619;48.562;8.910;2022-07-17T03:47:46;11.70;99.90
15044;DHT22;7619;48.562;8.910;2022-07-17T03:50:14;11.80;13.10
15044;DHT22;7619;48.562;8.910;2022-07-17T03:52:43;11.80;58.50
15044;DHT22;7619;48.562;8.910;2022-07-17T03:55:12;11.80;99.90
15044;DHT22;7619;48.562;8.910;2022-07-17T03:57:42;11.80;99.90
15044;DHT22;7619;48.562;8.910;2022-07-17T04:00:11;11.80;99.90
15044;DHT22;7619;48.562;8.910;2022-07-17T04:03:08;11.80;97.60
15044;DHT22;7619;48.562;8.910;2022-07-17T04:05:36;12.00;1.00
15044;DHT22;7619;48.562;8.910;2022-07-17T04:10:34;12.10;1.00
15044;DHT22;7619;48.562;8.910;2022-07-17T04:13:04;12.20;1.00
15044;DHT22;7619;48.562;8.910;2022-07-17T04:15:33;12.40;1.00
15044;DHT22;7619;48.562;8.910;2022-07-17T04:23:22;13.10;99.90
15044;DHT22;7619;48.562;8.910;2022-07-17T04:25:51;13.90;1.00
15044;DHT22;7619;48.562;8.910;2022-07-17T04:28:20;14.40;99.90
15044;DHT22;7619;48.562;8.910;2022-07-17T04:30:49;15.00;1.00
15044;DHT22;7619;48.562;8.910;2022-07-17T04:33:19;15.70;99.90
15044;DHT22;7619;48.562;8.910;2022-07-17T04:38:15;16.60;1.00
15044;DHT22;7619;48.562;8.910;2022-07-17T04:40:44;17.10;99.90
15044;DHT22;7619;48.562;8.910;2022-07-17T04:43:14;17.50;99.90
15044;DHT22;7619;48.562;8.910;2022-07-17T04:45:43;17.90;1.00
15044;DHT22;7619;48.562;8.910;2022-07-17T04:48:12;17.90;1.00
15044;DHT22;7619;48.562;8.910;2022-07-17T04:50:41;17.30;99.90
15044;DHT22;7619;48.562;8.910;2022-07-17T04:53:10;16.70;1.00
15044;DHT22;7619;48.562;8.910;2022-07-17T04:55:39;16.40;1.00
15044;DHT22;7619;48.562;8.910;2022-07-17T04:58:08;16.20;1.00
15044;DHT22;7619;48.562;8.910;2022-07-17T05:00:37;16.10;1.00
15044;DHT22;7619;48.562;8.910;2022-07-17T05:03:06;16.80;1.00
15044;DHT22;7619;48.562;8.910;2022-07-17T05:05:34;17.60;1.00
15044;DHT22;7619;48.562;8.910;2022-07-17T05:10:32;19.80;1.00
15044;DHT22;7619;48.562;8.910;2022-07-17T05:13:01;20.10;1.00
15044;DHT22;7619;48.562;8.910;2022-07-17T05:15:30;20.80;1.00
15044;DHT22;7619;48.562;8.910;2022-07-17T05:17:59;21.50;99.90
15044;DHT22;7619;48.562;8.910;2022-07-17T05:20:28;21.80;99.90
15044;DHT22;7619;48.562;8.910;2022-07-17T05:22:57;22.20;99.90
15044;DHT22;7619;48.562;8.910;2022-07-17T05:25:26;22.70;99.90
15044;DHT22;7619;48.562;8.910;2022-07-17T05:27:55;23.10;99.90
15044;DHT22;7619;48.562;8.910;2022-07-17T05:30:24;23.30;99.90
15044;DHT22;7619;48.562;8.910;2022-07-17T05:32:53;23.60;99.90
15044;DHT22;7619;48.562;8.910;2022-07-17T05:35:22;23.80;99.90
15044;DHT22;7619;48.562;8.910;2022-07-17T05:37:51;24.40;99.90
15044;DHT22;7619;48.562;8.910;2022-07-17T05:40:20;24.50;99.90
15044;DHT22;7619;48.562;8.910;2022-07-17T05:42:49;24.10;99.90
15044;DHT22;7619;48.562;8.910;2022-07-17T05:45:18;24.40;99.90
15044;DHT22;7619;48.562;8.910;2022-07-17T05:47:47;24.00;99.90
15044;DHT22;7619;48.562;8.910;2022-07-17T05:50:15;23.90;99.90
15044;DHT22;7619;48.562;8.910;2022-07-17T05:52:44;24.10;99.90
15044;DHT22;7619;48.562;8.910;2022-07-17T05:57:41;24.90;99.90
15044;DHT22;7619;48.562;8.910;2022-07-17T06:00:12;25.20;99.90
15044;DHT22;7619;48.562;8.910;2022-07-17T06:02:41;25.50;99.90
15044;DHT22;7619;48.562;8.910;2022-07-17T06:05:10;26.00;99.90
15044;DHT22;7619;48.562;8.910;2022-07-17T06:07:39;26.10;99.90
15044;DHT22;7619;48.562;8.910;2022-07-17T06:10:10;26.30;99.90
15044;DHT22;7619;48.562;8.910;2022-07-17T06:12:38;26.10;99.90
15044;DHT22;7619;48.562;8.910;2022-07-17T06:15:09;26.70;99.90
15044;DHT22;7619;48.562;8.910;2022-07-17T06:20:08;27.00;99.90
15044;DHT22;7619;48.562;8.910;2022-07-17T06:22:37;27.40;99.90
15044;DHT22;7619;48.562;8.910;2022-07-17T06:25:08;27.60;99.90
15044;DHT22;7619;48.562;8.910;2022-07-17T06:27:39;27.60;99.90
15044;DHT22;7619;48.562;8.910;2022-07-17T06:32:38;27.90;99.90
15044;DHT22;7619;48.562;8.910;2022-07-17T06:35:08;27.80;99.90
15044;DHT22;7619;48.562;8.910;2022-07-17T06:37:38;28.80;99.90
15044;DHT22;7619;48.562;8.910;2022-07-17T06:40:08;28.70;99.90
15044;DHT22;7619;48.562;8.910;2022-07-17T06:42:37;28.40;99.90
15044;DHT22;7619;48.562;8.910;2022-07-17T06:45:09;28.90;99.90
15044;DHT22;7619;48.562;8.910;2022-07-17T06:47:39;29.20;99.90
15044;DHT22;7619;48.562;8.910;2022-07-17T06:50:08;28.90;99.90
15044;DHT22;7619;48.562;8.910;2022-07-17T06:52:38;29.50;99.90
15044;DHT22;7619;48.562;8.910;2022-07-17T06:55:08;29.80;99.90
15044;DHT22;7619;48.562;8.910;2022-07-17T06:57:37;29.70;99.90
15044;DHT22;7619;48.562;8.910;2022-07-17T07:00:08;29.40;99.90
15044;DHT22;7619;48.562;8.910;2022-07-17T07:02:37;29.20;99.90
15044;DHT22;7619;48.562;8.910;2022-07-17T07:05:08;29.50;99.90
15044;DHT22;7619;48.562;8.910;2022-07-17T07:07:37;29.00;99.90
15044;DHT22;7619;48.562;8.910;2022-07-17T07:10:07;29.00;99.90
15044;DHT22;7619;48.562;8.910;2022-07-17T07:15:07;29.00;99.90
15044;DHT22;7619;48.562;8.910;2022-07-17T07:17:36;29.70;99.90
15044;DHT22;7619;48.562;8.910;2022-07-17T07:22:35;29.80;99.90
15044;DHT22;7619;48.562;8.910;2022-07-17T07:32:29;28.90;99.90
15044;DHT22;7619;48.562;8.910;2022-07-17T07:34:58;29.00;99.90
15044;DHT22;7619;48.562;8.910;2022-07-17T07:42:34;30.40;99.90
15044;DHT22;7619;48.562;8.910;2022-07-17T07:45:05;30.10;99.90
15044;DHT22;7619;48.562;8.910;2022-07-17T07:47:40;30.50;99.90
15044;DHT22;7619;48.562;8.910;2022-07-17T07:52:39;30.50;99.90
15044;DHT22;7619;48.562;8.910;2022-07-17T07:57:37;30.70;99.50
15044;DHT22;7619;48.562;8.910;2022-07-17T08:00:08;30.40;99.20
15044;DHT22;7619;48.562;8.910;2022-07-17T08:02:38;30.70;98.80
15044;DHT22;7619;48.562;8.910;2022-07-17T08:05:08;31.30;98.70
15044;DHT22;7619;48.562;8.910;2022-07-17T08:12:33;31.20;97.60
15044;DHT22;7619;48.562;8.910;2022-07-17T08:17:40;30.70;96.70
15044;DHT22;7619;48.562;8.910;2022-07-17T08:22:53;30.80;97.00
15044;DHT22;7619;48.562;8.910;2022-07-17T08:25:22;31.00;96.00
15044;DHT22;7619;48.562;8.910;2022-07-17T08:27:51;30.60;96.10
15044;DHT22;7619;48.562;8.910;2022-07-17T08:30:19;30.40;96.40
15044;DHT22;7619;48.562;8.910;2022-07-17T08:37:54;30.40;95.60
15044;DHT22;7619;48.562;8.910;2022-07-17T08:40:24;30.40;96.00
15044;DHT22;7619;48.562;8.910;2022-07-17T08:45:31;31.20;96.00
15044;DHT22;7619;48.562;8.910;2022-07-17T08:50:38;30.60;95.10
15044;DHT22;7619;48.562;8.910;2022-07-17T08:53:06;30.70;94.40
15044;DHT22;7619;48.562;8.910;2022-07-17T08:58:16;29.70;94.40
15044;DHT22;7619;48.562;8.910;2022-07-17T09:00:44;28.30;95.40
15044;DHT22;7619;48.562;8.910;2022-07-17T09:03:15;28.20;95.80
15044;DHT22;7619;48.562;8.910;2022-07-17T09:10:52;27.70;96.80
15044;DHT22;7619;48.562;8.910;2022-07-17T09:13:24;27.50;96.50
15044;DHT22;7619;48.562;8.910;2022-07-17T09:15:56;27.80;96.10
15044;DHT22;7619;48.562;8.910;2022-07-17T09:18:24;28.50;96.00
15044;DHT22;7619;48.562;8.910;2022-07-17T09:23:23;30.00;94.90
15044;DHT22;7619;48.562;8.910;2022-07-17T09:25:54;29.50;94.80
15044;DHT22;7619;48.562;8.910;2022-07-17T09:28:23;29.70;94.10
15044;DHT22;7619;48.562;8.910;2022-07-17T09:30:54;30.60;94.10
15044;DHT22;7619;48.562;8.910;2022-07-17T09:38:27;29.80;93.30
15044;DHT22;7619;48.562;8.910;2022-07-17T09:41:08;29.50;94.10
15044;DHT22;7619;48.562;8.910;2022-07-17T09:43:40;29.20;94.00
15044;DHT22;7619;48.562;8.910;2022-07-17T09:46:14;29.50;93.30
15044;DHT22;7619;48.562;8.910;2022-07-17T09:51:24;30.40;93.00
15044;DHT22;7619;48.562;8.910;2022-07-17T09:53:55;30.40;92.50
15044;DHT22;7619;48.562;8.910;2022-07-17T09:59:04;30.60;92.70
15044;DHT22;7619;48.562;8.910;2022-07-17T10:01:34;29.80;92.80
15044;DHT22;7619;48.562;8.910;2022-07-17T10:04:04;28.90;93.20
15044;DHT22;7619;48.562;8.910;2022-07-17T10:06:33;29.10;93.50
15044;DHT22;7619;48.562;8.910;2022-07-17T10:11:40;29.60;92.70
15044;DHT22;7619;48.562;8.910;2022-07-17T10:14:11;30.10;92.00
15044;DHT22;7619;48.562;8.910;2022-07-17T10:21:55;29.50;92.60
15044;DHT22;7619;48.562;8.910;2022-07-17T10:26:53;30.30;91.70
15044;DHT22;7619;48.562;8.910;2022-07-17T10:37:52;29.40;91.90
15044;DHT22;7619;48.562;8.910;2022-07-17T10:40:23;29.20;91.90
15044;DHT22;7619;48.562;8.910;2022-07-17T10:42:55;29.30;91.60
15044;DHT22;7619;48.562;8.910;2022-07-17T10:45:28;29.40;91.20
15044;DHT22;7619;48.562;8.910;2022-07-17T10:48:00;29.20;91.00
15044;DHT22;7619;48.562;8.910;2022-07-17T10:53:16;29.50;90.50
15044;DHT22;7619;48.562;8.910;2022-07-17T10:58:27;29.60;90.50
15044;DHT22;7619;48.562;8.910;2022-07-17T11:03:25;29.80;90.90
15044;DHT22;7619;48.562;8.910;2022-07-17T11:05:54;30.00;90.40
15044;DHT22;7619;48.562;8.910;2022-07-17T11:15:57;28.90;91.20
15044;DHT22;7619;48.562;8.910;2022-07-17T11:18:26;29.00;90.50
15044;DHT22;7619;48.562;8.910;2022-07-17T11:28:38;30.00;90.30
15044;DHT22;7619;48.562;8.910;2022-07-17T11:31:18;30.00;88.00
15044;DHT22;7619;48.562;8.910;2022-07-17T11:33:49;30.30;89.30
15044;DHT22;7619;48.562;8.910;2022-07-17T11:38:57;30.50;88.60
15044;DHT22;7619;48.562;8.910;2022-07-17T11:41:33;30.60;88.90
15044;DHT22;7619;48.562;8.910;2022-07-17T11:44:03;30.70;86.80
15044;DHT22;7619;48.562;8.910;2022-07-17T11:46:32;30.70;87.50
15044;DHT22;7619;48.562;8.910;2022-07-17T11:49:03;30.50;86.60
15044;DHT22;7619;48.562;8.910;2022-07-17T11:51:38;30.70;86.80
15044;DHT22;7619;48.562;8.910;2022-07-17T11:54:08;30.70;86.00
15044;DHT22;7619;48.562;8.910;2022-07-17T11:56:38;30.60;85.40
15044;DHT22;7619;48.562;8.910;2022-07-17T11:59:07;30.60;86.30
15044;DHT22;7619;48.562;8.910;2022-07-17T12:01:41;30.60;86.20
15044;DHT22;7619;48.562;8.910;2022-07-17T12:04:12;30.80;85.80
15044;DHT22;7619;48.562;8.910;2022-07-17T12:06:41;30.50;85.40
15044;DHT22;7619;48.562;8.910;2022-07-17T12:09:10;30.80;85.40
15044;DHT22;7619;48.562;8.910;2022-07-17T12:11:49;30.80;86.30
15044;DHT22;7619;48.562;8.910;2022-07-17T12:16:46;31.30;83.70
15044;DHT22;7619;48.562;8.910;2022-07-17T12:19:16;31.00;85.20
15044;DHT22;7619;48.562;8.910;2022-07-17T12:21:55;30.60;84.30
15044;DHT22;7619;48.562;8.910;2022-07-17T12:24:28;30.60;83.90
15044;DHT22;7619;48.562;8.910;2022-07-17T12:27:00;30.70;82.70
15044;DHT22;7619;48.562;8.910;2022-07-17T12:29:29;30.70;85.20
15044;DHT22;7619;48.562;8.910;2022-07-17T12:32:04;30.90;83.80
15044;DHT22;7619;48.562;8.910;2022-07-17T12:34:33;31.10;83.00
15044;DHT22;7619;48.562;8.910;2022-07-17T12:39:31;31.40;82.00
15044;DHT22;7619;48.562;8.910;2022-07-17T12:42:00;31.60;82.00
15044;DHT22;7619;48.562;8.910;2022-07-17T12:44:30;32.00;81.50
15044;DHT22;7619;48.562;8.910;2022-07-17T12:54:34;32.40;80.70
15044;DHT22;7619;48.562;8.910;2022-07-17T13:04:37;33.60;78.00
15044;DHT22;7619;48.562;8.910;2022-07-17T13:09:43;33.30;78.70
15044;DHT22;7619;48.562;8.910;2022-07-17T13:12:12;33.10;78.40
15044;DHT22;7619;48.562;8.910;2022-07-17T13:14:41;33.40;78.00
15044;DHT22;7619;48.562;8.910;2022-07-17T13:27:12;32.60;77.50
15044;DHT22;7619;48.562;8.910;2022-07-17T13:29:41;32.80;77.50
15044;DHT22;7619;48.562;8.910;2022-07-17T13:34:51;32.90;78.40
15044;DHT22;7619;48.562;8.910;2022-07-17T13:37:20;32.70;77.30
15044;DHT22;7619;48.562;8.910;2022-07-17T13:39:49;32.50;78.30
15044;DHT22;7619;48.562;8.910;2022-07-17T13:42:19;32.30;77.50
15044;DHT22;7619;48.562;8.910;2022-07-17T13:47:25;32.50;77.80
15044;DHT22;7619;48.562;8.910;2022-07-17T13:49:54;33.10;77.40
15044;DHT22;7619;48.562;8.910;2022-07-17T13:52:23;33.50;75.50
15044;DHT22;7619;48.562;8.910;2022-07-17T13:54:52;33.50;75.50
15044;DHT22;7619;48.562;8.910;2022-07-17T14:04:56;33.00;76.70
15044;DHT22;7619;48.562;8.910;2022-07-17T14:15:09;34.20;73.80
15044;DHT22;7619;48.562;8.910;2022-07-17T14:27:57;32.80;74.10
15044;DHT22;7619;48.562;8.910;2022-07-17T14:33:04;33.40;72.90
15044;DHT22;7619;48.562;8.910;2022-07-17T14:35:33;33.40;73.80
15044;DHT22;7619;48.562;8.910;2022-07-17T14:40:42;32.80;73.90
15044;DHT22;7619;48.562;8.910;2022-07-17T14:43:12;32.80;74.10
15044;DHT22;7619;48.562;8.910;2022-07-17T14:45:41;32.80;73.60
15044;DHT22;7619;48.562;8.910;2022-07-17T14:48:10;33.10;73.40
15044;DHT22;7619;48.562;8.910;2022-07-17T14:50:40;33.60;74.10
15044;DHT22;7619;48.562;8.910;2022-07-17T14:53:09;34.00;73.60
15044;DHT22;7619;48.562;8.910;2022-07-17T14:55:38;33.50;73.40
15044;DHT22;7619;48.562;8.910;2022-07-17T14:58:08;33.20;73.90
15044;DHT22;7619;48.562;8.910;2022-07-17T15:00:37;33.20;75.00
15044;DHT22;7619;48.562;8.910;2022-07-17T15:03:06;33.50;72.30
15044;DHT22;7619;48.562;8.910;2022-07-17T15:08:06;33.70;71.30
15044;DHT22;7619;48.562;8.910;2022-07-17T15:10:35;33.70;71.80
15044;DHT22;7619;48.562;8.910;2022-07-17T15:13:05;33.40;74.30
15044;DHT22;7619;48.562;8.910;2022-07-17T15:15:34;33.60;71.90
15044;DHT22;7619;48.562;8.910;2022-07-17T15:18:03;33.60;72.70
15044;DHT22;7619;48.562;8.910;2022-07-17T15:20:33;34.00;73.10
15044;DHT22;7619;48.562;8.910;2022-07-17T15:23:03;34.30;71.90
15044;DHT22;7619;48.562;8.910;2022-07-17T15:28:00;33.00;72.40
15044;DHT22;7619;48.562;8.910;2022-07-17T15:30:30;33.20;72.50
15044;DHT22;7619;48.562;8.910;2022-07-17T15:32:59;33.70;72.10
15044;DHT22;7619;48.562;8.910;2022-07-17T15:37:56;32.20;72.40
15044;DHT22;7619;48.562;8.910;2022-07-17T15:42:55;32.20;71.80
15044;DHT22;7619;48.562;8.910;2022-07-17T15:45:24;32.40;72.30
15044;DHT22;7619;48.562;8.910;2022-07-17T15:47:53;32.50;73.30
15044;DHT22;7619;48.562;8.910;2022-07-17T15:50:23;32.70;72.50
15044;DHT22;7619;48.562;8.910;2022-07-17T15:52:52;32.20;73.70
15044;DHT22;7619;48.562;8.910;2022-07-17T15:55:22;31.60;72.90
15044;DHT22;7619;48.562;8.910;2022-07-17T15:57:50;31.30;74.70
15044;DHT22;7619;48.562;8.910;2022-07-17T16:00:20;31.40;73.40
15044;DHT22;7619;48.562;8.910;2022-07-17T16:02:50;31.80;73.50
15044;DHT22;7619;48.562;8.910;2022-07-17T16:07:48;32.00;70.90
15044;DHT22;7619;48.562;8.910;2022-07-17T16:10:19;32.30;72.70
15044;DHT22;7619;48.562;8.910;2022-07-17T16:12:48;32.30;71.30
15044;DHT22;7619;48.562;8.910;2022-07-17T16:15:18;31.60;72.60
15044;DHT22;7619;48.562;8.910;2022-07-17T16:17:47;31.40;73.10
15044;DHT22;7619;48.562;8.910;2022-07-17T16:20:16;31.30;73.80
15044;DHT22;7619;48.562;8.910;2022-07-17T16:22:45;31.00;73.30
15044;DHT22;7619;48.562;8.910;2022-07-17T16:25:14;31.10;73.80
15044;DHT22;7619;48.562;8.910;2022-07-17T16:27:43;30.80;73.20
15044;DHT22;7619;48.562;8.910;2022-07-17T16:30:12;30.60;72.80
15044;DHT22;7619;48.562;8.910;2022-07-17T16:32:42;30.40;74.60
15044;DHT22;7619;48.562;8.910;2022-07-17T16:35:11;30.40;73.00
15044;DHT22;7619;48.562;8.910;2022-07-17T16:37:40;30.20;74.20
15044;DHT22;7619;48.562;8.910;2022-07-17T16:40:13;30.10;75.40
15044;DHT22;7619;48.562;8.910;2022-07-17T16:42:42;30.00;74.00
15044;DHT22;7619;48.562;8.910;2022-07-17T16:45:11;30.00;74.30
15044;DHT22;7619;48.562;8.910;2022-07-17T16:50:09;29.70;73.60
15044;DHT22;7619;48.562;8.910;2022-07-17T16:52:38;29.90;73.70
15044;DHT22;7619;48.562;8.910;2022-07-17T16:55:09;30.00;74.90
15044;DHT22;7619;48.562;8.910;2022-07-17T16:57:38;30.10;74.00
15044;DHT22;7619;48.562;8.910;2022-07-17T17:00:09;30.10;72.70
15044;DHT22;7619;48.562;8.910;2022-07-17T17:02:38;29.90;74.20
15044;DHT22;7619;48.562;8.910;2022-07-17T17:05:08;29.90;74.20
15044;DHT22;7619;48.562;8.910;2022-07-17T17:07:37;29.60;74.70
15044;DHT22;7619;48.562;8.910;2022-07-17T17:10:07;29.30;74.30
15044;DHT22;7619;48.562;8.910;2022-07-17T17:15:06;29.30;74.30
15044;DHT22;7619;48.562;8.910;2022-07-17T17:17:35;29.10;75.70
15044;DHT22;7619;48.562;8.910;2022-07-17T17:20:06;29.10;74.30
15044;DHT22;7619;48.562;8.910;2022-07-17T17:22:36;29.20;74.90
15044;DHT22;7619;48.562;8.910;2022-07-17T17:25:08;29.20;74.20
15044;DHT22;7619;48.562;8.910;2022-07-17T17:30:08;28.70;76.50
15044;DHT22;7619;48.562;8.910;2022-07-17T17:32:37;28.80;75.70
15044;DHT22;7619;48.562;8.910;2022-07-17T17:35:07;28.70;77.20
15044;DHT22;7619;48.562;8.910;2022-07-17T17:37:36;28.70;75.80
15044;DHT22;7619;48.562;8.910;2022-07-17T17:40:07;28.60;76.70
15044;DHT22;7619;48.562;8.910;2022-07-17T17:42:36;28.40;78.60
15044;DHT22;7619;48.562;8.910;2022-07-17T17:45:07;28.30;76.90
15044;DHT22;7619;48.562;8.910;2022-07-17T17:47:36;28.20;77.70
15044;DHT22;7619;48.562;8.910;2022-07-17T17:50:07;28.10;77.40
15044;DHT22;7619;48.562;8.910;2022-07-17T17:55:14;27.80;77.90
15044;DHT22;7619;48.562;8.910;2022-07-17T17:57:43;27.80;78.50
15044;DHT22;7619;48.562;8.910;2022-07-17T18:00:12;27.80;79.30
15044;DHT22;7619;48.562;8.910;2022-07-17T18:02:41;27.60;78.10
15044;DHT22;7619;48.562;8.910;2022-07-17T18:07:49;27.50;78.30
15044;DHT22;7619;48.562;8.910;2022-07-17T18:12:47;27.20;79.50
15044;DHT22;7619;48.562;8.910;2022-07-17T18:15:16;27.20;78.90
15044;DHT22;7619;48.562;8.910;2022-07-17T18:17:47;27.20;79.20
15044;DHT22;7619;48.562;8.910;2022-07-17T18:20:16;27.20;80.50
15044;DHT22;7619;48.562;8.910;2022-07-17T18:25:23;27.00;79.40
15044;DHT22;7619;48.562;8.910;2022-07-17T18:27:52;27.00;80.10
15044;DHT22;7619;48.562;8.910;2022-07-17T18:32:51;26.70;82.00
15044;DHT22;7619;48.562;8.910;2022-07-17T18:37:57;26.50;82.20
15044;DHT22;7619;48.562;8.910;2022-07-17T18:40:27;26.40;82.40
15044;DHT22;7619;48.562;8.910;2022-07-17T18:45:24;26.20;82.80
15044;DHT22;7619;48.562;8.910;2022-07-17T18:47:53;26.20;83.70
15044;DHT22;7619;48.562;8.910;2022-07-17T18:55:32;25.80;84.90
15044;DHT22;7619;48.562;8.910;2022-07-17T18:58:00;25.60;86.20
15044;DHT22;7619;48.562;8.910;2022-07-17T19:05:36;25.20;86.10
15044;DHT22;7619;48.562;8.910;2022-07-17T19:08:05;25.20;87.00
15044;DHT22;7619;48.562;8.910;2022-07-17T19:13:13;25.00;89.00
15044;DHT22;7619;48.562;8.910;2022-07-17T19:20:48;24.50;90.00
15044;DHT22;7619;48.562;8.910;2022-07-17T19:23:17;24.40;90.30
15044;DHT22;7619;48.562;8.910;2022-07-17T19:25:46;24.20;90.20
15044;DHT22;7619;48.562;8.910;2022-07-17T19:28:16;24.20;90.10
15044;DHT22;7619;48.562;8.910;2022-07-17T19:33:13;24.10;90.90
15044;DHT22;7619;48.562;8.910;2022-07-17T19:35:43;24.10;91.80
15044;DHT22;7619;48.562;8.910;2022-07-17T19:38:13;23.80;92.80
15044;DHT22;7619;48.562;8.910;2022-07-17T19:43:21;23.20;92.60
15044;DHT22;7619;48.562;8.910;2022-07-17T19:58:43;22.40;90.00
15044;DHT22;7619;48.562;8.910;2022-07-17T20:13:44;21.60;80.00
15044;DHT22;7619;48.562;8.910;2022-07-17T20:18:43;21.40;74.30
15044;DHT22;7619;48.562;8.910;2022-07-17T20:23:40;21.20;74.50
15044;DHT22;7619;48.562;8.910;2022-07-17T20:48:23;20.50;90.20
15044;DHT22;7619;48.562;8.910;2022-07-17T21:23:19;18.90;59.20
15044;DHT22;7619;48.562;8.910;2022-07-17T21:25:48;18.90;62.40
15044;DHT22;7619;48.562;8.910;2022-07-17T21:28:17;19.00;80.30
15044;DHT22;7619;48.562;8.910;2022-07-17T21:35:44;19.20;88.70
15044;DHT22;7619;48.562;8.910;2022-07-17T21:38:13;19.10;78.30
15044;DHT22;7619;48.562;8.910;2022-07-17T21:40:42;18.90;76.40
15044;DHT22;7619;48.562;8.910;2022-07-17T21:43:11;19.00;91.90
15044;DHT22;7619;48.562;8.910;2022-07-17T21:45:42;19.00;93.50
15044;DHT22;7619;48.562;8.910;2022-07-17T21:48:11;19.00;86.60
15044;DHT22;7619;48.562;8.910;2022-07-17T21:50:40;18.90;73.80
15044;DHT22;7619;48.562;8.910;2022-07-17T21:55:37;18.50;61.70
15044;DHT22;7619;48.562;8.910;2022-07-17T21:58:06;18.40;65.00
15044;DHT22;7619;48.562;8.910;2022-07-17T22:00:35;18.30;59.20
15044;DHT22;7619;48.562;8.910;2022-07-17T22:03:05;18.30;57.80
15044;DHT22;7619;48.562;8.910;2022-07-17T22:08:05;18.40;65.40
15044;DHT22;7619;48.562;8.910;2022-07-17T22:10:34;18.40;56.60
15044;DHT22;7619;48.562;8.910;2022-07-17T22:13:03;18.30;70.20
15044;DHT22;7619;48.562;8.910;2022-07-17T22:15:33;18.30;58.70
15044;DHT22;7619;48.562;8.910;2022-07-17T22:20:31;18.30;56.90
15044;DHT22;7619;48.562;8.910;2022-07-17T22:23:01;18.30;55.10
15044;DHT22;7619;48.562;8.910;2022-07-17T22:27:59;18.30;54.10